Sumner, Maine
Current Conditions -  °F | °C
As of 12:55 PM on Tuesday 21 Oct 2014 (Local Time) from KLEW Reporting Station
Overcast Overcast  
Wind Chill: 42°   Ceiling: 1200
Heat Index: 46°   Visibility: 10mi
Dew Point: 43°   Wind: 8mph
Humidity: 87%   Direction: 20°NNE
Pressure: 30.03"   Gusts: NA
Location:  44.39°N, 70.43°W
Report Text: KLEW 211655Z AUTO 02007KT 10SM OVC012 08/06 A3003 RMK AO1
Loading
Personal Weather Stations






























Interactive Weather Map
Tropical Storm Tracking
New forecast layout! Learn more

10-Day Weather Forecast

Advertisements
Track Severe Weather on mobile